Airfield :
LOGIN :

Register | Disclaimer

   EN    FR    IT 

 










Legend :    VFR   Marginal VFR   IFR   Intensive IFR   Very Intensive IFR
Visi :
Ceiling :
>= 8 km
>= 3000ft
5 to 8 km
1000 to 3000 ft
1500m to 5 km
500 to 1000 ft
800 to 1500m
200 to 500 ft
< 800m
< 200 ft
Symbols :   Thunderstorms  Fog  Heavy snow  Heavy precipitations  Wind > 20 kt
SIGMETs :     Misc.  Thunderstorms  Icing  Turbulence  Mountain Waves  Volcanic Ashes







- Airport Elevation : 45 ft
- IATA code : CEG
- Download approach charts


EGNR - Hawarden Chester

CURRENT METAR :
  • 161150Z 26006KT 230V330 9999 VCSH FEW018 BKN048 07/04 Q1002

EXPIRED METARs :
  • 161120Z 26008KT 9999 FEW018 BKN048 07/04 Q1002
  • 161050Z 29010KT 250V330 9999 -RA FEW018 BKN045 07/04 Q1002
  • 161020Z 26010KT 9999 -RA FEW020 BKN045 07/04 Q1002
  • 160950Z 26008KT 9999 -RA FEW008 SCT037 BKN045 07/05 Q1002
  • 160920Z 29007KT 240V320 9999 -RA FEW008 SCT037 BKN045 07/05 Q1002

TAF TAF EGNR
Valid from the 16 at 12:00 until the 16 at 21:00 UTC


161106Z 1612/1621 26011KT 9999 SCT030
TEMPO 1612/1613 6000 RA BKN014
BECMG 1615/1618 20007KT
TEMPO 1617/1621 7000 SHRA BKN012
PROB30
TEMPO 1617/1621 3000 +SHRAGS BKN009 BKN028CB
No reported NOTAMs for that airfield.



MET'MAP, your aeronautical weather chart ! - Copyright ORBIFLY December 2007 - Disclaimer

ORBIFLY MET'MAP TEAM :

Programming & Development : Alexandra Zaïnal
Concept & Development : Baudouin d'Aumeries
Co-Development & Prog : Marc-Olivier Méhu
Technical & hardware support : Manuel Goepfert

Contact : metmap@orbifly.com




SOURCES & CREDITS :

   NOAA